sensor_id;sensor_type;location;lat;lon;timestamp;temperature;humidity
22779;DHT22;11556;51.194;3.800;2022-11-13T00:00:30;9.80;99.90
22779;DHT22;11556;51.194;3.800;2022-11-13T00:02:56;9.80;99.90
22779;DHT22;11556;51.194;3.800;2022-11-13T00:05:21;9.80;99.90
22779;DHT22;11556;51.194;3.800;2022-11-13T00:07:47;9.80;99.90
22779;DHT22;11556;51.194;3.800;2022-11-13T00:10:13;9.70;99.90
22779;DHT22;11556;51.194;3.800;2022-11-13T00:12:38;9.70;99.90
22779;DHT22;11556;51.194;3.800;2022-11-13T00:15:04;9.60;99.90
22779;DHT22;11556;51.194;3.800;2022-11-13T00:17:30;9.60;99.90
22779;DHT22;11556;51.194;3.800;2022-11-13T00:19:55;9.60;99.90
22779;DHT22;11556;51.194;3.800;2022-11-13T00:22:21;9.70;99.90
22779;DHT22;11556;51.194;3.800;2022-11-13T00:24:46;9.60;99.90
22779;DHT22;11556;51.194;3.800;2022-11-13T00:27:12;9.50;99.90
22779;DHT22;11556;51.194;3.800;2022-11-13T00:29:37;9.50;99.90
22779;DHT22;11556;51.194;3.800;2022-11-13T00:32:03;9.60;99.90
22779;DHT22;11556;51.194;3.800;2022-11-13T00:34:29;9.60;99.90
22779;DHT22;11556;51.194;3.800;2022-11-13T00:36:54;9.70;99.90
22779;DHT22;11556;51.194;3.800;2022-11-13T00:39:20;9.70;99.90
22779;DHT22;11556;51.194;3.800;2022-11-13T00:41:46;9.60;99.90
22779;DHT22;11556;51.194;3.800;2022-11-13T00:44:11;9.60;99.90
22779;DHT22;11556;51.194;3.800;2022-11-13T00:46:37;9.60;99.90
22779;DHT22;11556;51.194;3.800;2022-11-13T00:49:03;9.60;99.90
22779;DHT22;11556;51.194;3.800;2022-11-13T00:51:29;9.60;99.90
22779;DHT22;11556;51.194;3.800;2022-11-13T00:53:55;9.60;99.90
22779;DHT22;11556;51.194;3.800;2022-11-13T00:56:21;9.50;99.90
22779;DHT22;11556;51.194;3.800;2022-11-13T00:58:46;9.50;99.90
22779;DHT22;11556;51.194;3.800;2022-11-13T01:01:14;9.60;99.90
22779;DHT22;11556;51.194;3.800;2022-11-13T01:03:40;9.60;99.90
22779;DHT22;11556;51.194;3.800;2022-11-13T01:06:18;9.60;99.90
22779;DHT22;11556;51.194;3.800;2022-11-13T01:08:45;9.50;99.90
22779;DHT22;11556;51.194;3.800;2022-11-13T01:11:15;9.50;99.90
22779;DHT22;11556;51.194;3.800;2022-11-13T01:13:42;9.50;99.90
22779;DHT22;11556;51.194;3.800;2022-11-13T01:16:09;9.40;99.90
22779;DHT22;11556;51.194;3.800;2022-11-13T01:18:36;9.20;99.90
22779;DHT22;11556;51.194;3.800;2022-11-13T01:21:11;9.20;99.90
22779;DHT22;11556;51.194;3.800;2022-11-13T01:23:37;9.20;99.90
22779;DHT22;11556;51.194;3.800;2022-11-13T01:26:08;9.20;99.90
22779;DHT22;11556;51.194;3.800;2022-11-13T01:28:34;9.30;99.90
22779;DHT22;11556;51.194;3.800;2022-11-13T01:31:04;9.20;99.90
22779;DHT22;11556;51.194;3.800;2022-11-13T01:33:30;9.10;99.90
22779;DHT22;11556;51.194;3.800;2022-11-13T01:36:03;9.00;99.90
22779;DHT22;11556;51.194;3.800;2022-11-13T01:38:29;9.00;99.90
22779;DHT22;11556;51.194;3.800;2022-11-13T01:40:55;9.00;99.90
22779;DHT22;11556;51.194;3.800;2022-11-13T01:43:26;9.00;99.90
22779;DHT22;11556;51.194;3.800;2022-11-13T01:48:37;9.00;99.90
22779;DHT22;11556;51.194;3.800;2022-11-13T01:51:12;8.90;99.90
22779;DHT22;11556;51.194;3.800;2022-11-13T01:53:40;9.00;99.90
22779;DHT22;11556;51.194;3.800;2022-11-13T01:56:07;9.00;99.90
22779;DHT22;11556;51.194;3.800;2022-11-13T01:58:33;9.00;99.90
22779;DHT22;11556;51.194;3.800;2022-11-13T02:00:59;9.00;99.90
22779;DHT22;11556;51.194;3.800;2022-11-13T02:03:24;9.00;99.90
22779;DHT22;11556;51.194;3.800;2022-11-13T02:05:51;9.00;99.90
22779;DHT22;11556;51.194;3.800;2022-11-13T02:08:17;9.00;99.90
22779;DHT22;11556;51.194;3.800;2022-11-13T02:10:43;8.90;99.90
22779;DHT22;11556;51.194;3.800;2022-11-13T02:13:09;8.90;99.90
22779;DHT22;11556;51.194;3.800;2022-11-13T02:15:36;8.90;99.90
22779;DHT22;11556;51.194;3.800;2022-11-13T02:18:02;8.90;99.90
22779;DHT22;11556;51.194;3.800;2022-11-13T02:20:49;8.80;99.90
22779;DHT22;11556;51.194;3.800;2022-11-13T02:23:42;8.80;99.90
22779;DHT22;11556;51.194;3.800;2022-11-13T02:26:11;8.60;99.90
22779;DHT22;11556;51.194;3.800;2022-11-13T02:28:37;8.70;99.90
22779;DHT22;11556;51.194;3.800;2022-11-13T02:31:08;8.70;99.90
22779;DHT22;11556;51.194;3.800;2022-11-13T02:33:34;8.70;99.90
22779;DHT22;11556;51.194;3.800;2022-11-13T02:35:59;8.60;99.90
22779;DHT22;11556;51.194;3.800;2022-11-13T02:38:25;8.50;99.90
22779;DHT22;11556;51.194;3.800;2022-11-13T02:40:51;8.50;99.90
22779;DHT22;11556;51.194;3.800;2022-11-13T02:43:16;8.40;99.90
22779;DHT22;11556;51.194;3.800;2022-11-13T02:45:42;8.30;99.90
22779;DHT22;11556;51.194;3.800;2022-11-13T02:48:08;8.30;99.90
22779;DHT22;11556;51.194;3.800;2022-11-13T02:50:35;8.30;99.90
22779;DHT22;11556;51.194;3.800;2022-11-13T02:53:02;8.40;99.90
22779;DHT22;11556;51.194;3.800;2022-11-13T02:55:27;8.40;99.90
22779;DHT22;11556;51.194;3.800;2022-11-13T02:57:53;8.50;99.90
22779;DHT22;11556;51.194;3.800;2022-11-13T03:00:19;8.50;99.90
22779;DHT22;11556;51.194;3.800;2022-11-13T03:02:44;8.40;99.90
22779;DHT22;11556;51.194;3.800;2022-11-13T03:05:10;8.30;99.90
22779;DHT22;11556;51.194;3.800;2022-11-13T03:07:36;8.20;99.90
22779;DHT22;11556;51.194;3.800;2022-11-13T03:10:01;8.10;99.90
22779;DHT22;11556;51.194;3.800;2022-11-13T03:12:27;8.10;99.90
22779;DHT22;11556;51.194;3.800;2022-11-13T03:14:53;8.10;99.90
22779;DHT22;11556;51.194;3.800;2022-11-13T03:17:18;8.00;99.90
22779;DHT22;11556;51.194;3.800;2022-11-13T03:19:44;8.00;99.90
22779;DHT22;11556;51.194;3.800;2022-11-13T03:22:09;8.00;99.90
22779;DHT22;11556;51.194;3.800;2022-11-13T03:24:35;7.90;99.90
22779;DHT22;11556;51.194;3.800;2022-11-13T03:27:01;7.80;99.90
22779;DHT22;11556;51.194;3.800;2022-11-13T03:29:26;7.80;99.90
22779;DHT22;11556;51.194;3.800;2022-11-13T03:31:52;7.80;99.90
22779;DHT22;11556;51.194;3.800;2022-11-13T03:34:17;7.90;99.90
22779;DHT22;11556;51.194;3.800;2022-11-13T03:36:43;7.90;99.90
22779;DHT22;11556;51.194;3.800;2022-11-13T03:39:08;7.90;99.90
22779;DHT22;11556;51.194;3.800;2022-11-13T03:41:34;7.90;99.90
22779;DHT22;11556;51.194;3.800;2022-11-13T03:43:59;7.80;99.90
22779;DHT22;11556;51.194;3.800;2022-11-13T03:46:25;7.80;99.90
22779;DHT22;11556;51.194;3.800;2022-11-13T03:48:51;7.70;99.90
22779;DHT22;11556;51.194;3.800;2022-11-13T03:51:16;7.70;99.90
22779;DHT22;11556;51.194;3.800;2022-11-13T03:53:42;7.60;99.90
22779;DHT22;11556;51.194;3.800;2022-11-13T03:56:07;7.50;99.90
22779;DHT22;11556;51.194;3.800;2022-11-13T03:58:33;7.60;99.90
22779;DHT22;11556;51.194;3.800;2022-11-13T04:00:59;7.70;99.90
22779;DHT22;11556;51.194;3.800;2022-11-13T04:03:24;7.80;99.90
22779;DHT22;11556;51.194;3.800;2022-11-13T04:05:50;7.80;99.90
22779;DHT22;11556;51.194;3.800;2022-11-13T04:08:16;7.80;99.90
22779;DHT22;11556;51.194;3.800;2022-11-13T04:10:43;7.80;99.90
22779;DHT22;11556;51.194;3.800;2022-11-13T04:13:08;7.80;99.90
22779;DHT22;11556;51.194;3.800;2022-11-13T04:15:34;7.80;99.90
22779;DHT22;11556;51.194;3.800;2022-11-13T04:18:00;7.80;99.90
22779;DHT22;11556;51.194;3.800;2022-11-13T04:20:26;7.80;99.90
22779;DHT22;11556;51.194;3.800;2022-11-13T04:22:57;7.80;99.90
22779;DHT22;11556;51.194;3.800;2022-11-13T04:25:24;7.80;99.90
22779;DHT22;11556;51.194;3.800;2022-11-13T04:27:51;7.80;99.90
22779;DHT22;11556;51.194;3.800;2022-11-13T04:30:17;7.80;99.90
22779;DHT22;11556;51.194;3.800;2022-11-13T04:32:43;7.90;99.90
22779;DHT22;11556;51.194;3.800;2022-11-13T04:35:09;8.00;99.90
22779;DHT22;11556;51.194;3.800;2022-11-13T04:37:35;7.90;99.90
22779;DHT22;11556;51.194;3.800;2022-11-13T04:40:01;7.90;99.90
22779;DHT22;11556;51.194;3.800;2022-11-13T04:42:26;7.80;99.90
22779;DHT22;11556;51.194;3.800;2022-11-13T04:45:11;7.80;99.90
22779;DHT22;11556;51.194;3.800;2022-11-13T04:47:36;7.90;99.90
22779;DHT22;11556;51.194;3.800;2022-11-13T04:50:03;7.90;99.90
22779;DHT22;11556;51.194;3.800;2022-11-13T04:52:28;7.90;99.90
22779;DHT22;11556;51.194;3.800;2022-11-13T04:54:54;7.90;99.90
22779;DHT22;11556;51.194;3.800;2022-11-13T04:57:20;7.90;99.90
22779;DHT22;11556;51.194;3.800;2022-11-13T04:59:46;8.10;99.90
22779;DHT22;11556;51.194;3.800;2022-11-13T05:02:11;8.00;99.90
22779;DHT22;11556;51.194;3.800;2022-11-13T05:04:37;8.00;99.90
22779;DHT22;11556;51.194;3.800;2022-11-13T05:07:02;7.90;99.90
22779;DHT22;11556;51.194;3.800;2022-11-13T05:09:28;7.90;99.90
22779;DHT22;11556;51.194;3.800;2022-11-13T05:11:53;7.90;99.90
22779;DHT22;11556;51.194;3.800;2022-11-13T05:14:19;7.90;99.90
22779;DHT22;11556;51.194;3.800;2022-11-13T05:16:44;7.80;99.90
22779;DHT22;11556;51.194;3.800;2022-11-13T05:19:10;7.80;99.90
22779;DHT22;11556;51.194;3.800;2022-11-13T05:21:37;7.80;99.90
22779;DHT22;11556;51.194;3.800;2022-11-13T05:24:03;7.70;99.90
22779;DHT22;11556;51.194;3.800;2022-11-13T05:26:29;7.70;99.90
22779;DHT22;11556;51.194;3.800;2022-11-13T05:28:56;7.60;99.90
22779;DHT22;11556;51.194;3.800;2022-11-13T05:31:23;7.80;99.90
22779;DHT22;11556;51.194;3.800;2022-11-13T05:33:49;7.80;99.90
22779;DHT22;11556;51.194;3.800;2022-11-13T05:36:16;7.80;99.90
22779;DHT22;11556;51.194;3.800;2022-11-13T05:38:42;7.70;99.90
22779;DHT22;11556;51.194;3.800;2022-11-13T05:41:08;7.60;99.90
22779;DHT22;11556;51.194;3.800;2022-11-13T05:43:35;7.60;99.90
22779;DHT22;11556;51.194;3.800;2022-11-13T05:46:05;7.60;99.90
22779;DHT22;11556;51.194;3.800;2022-11-13T05:48:32;7.50;99.90
22779;DHT22;11556;51.194;3.800;2022-11-13T05:51:25;7.40;99.90
22779;DHT22;11556;51.194;3.800;2022-11-13T05:53:52;7.20;99.90
22779;DHT22;11556;51.194;3.800;2022-11-13T05:56:29;7.20;99.90
22779;DHT22;11556;51.194;3.800;2022-11-13T05:58:55;7.40;99.90
22779;DHT22;11556;51.194;3.800;2022-11-13T06:01:32;7.40;99.90
22779;DHT22;11556;51.194;3.800;2022-11-13T06:03:59;7.40;99.90
22779;DHT22;11556;51.194;3.800;2022-11-13T06:06:26;7.40;99.90
22779;DHT22;11556;51.194;3.800;2022-11-13T06:08:53;7.50;99.90
22779;DHT22;11556;51.194;3.800;2022-11-13T06:11:21;7.50;99.90
22779;DHT22;11556;51.194;3.800;2022-11-13T06:13:48;7.40;99.90
22779;DHT22;11556;51.194;3.800;2022-11-13T06:16:20;7.30;99.90
22779;DHT22;11556;51.194;3.800;2022-11-13T06:18:47;7.30;99.90
22779;DHT22;11556;51.194;3.800;2022-11-13T06:21:19;7.30;99.90
22779;DHT22;11556;51.194;3.800;2022-11-13T06:23:45;7.30;99.90
22779;DHT22;11556;51.194;3.800;2022-11-13T06:28:37;7.10;99.90
22779;DHT22;11556;51.194;3.800;2022-11-13T06:31:11;7.00;99.90
22779;DHT22;11556;51.194;3.800;2022-11-13T06:33:37;6.80;99.90
22779;DHT22;11556;51.194;3.800;2022-11-13T06:36:09;6.70;99.90
22779;DHT22;11556;51.194;3.800;2022-11-13T06:38:37;6.80;99.90
22779;DHT22;11556;51.194;3.800;2022-11-13T06:41:03;6.90;99.90
22779;DHT22;11556;51.194;3.800;2022-11-13T06:43:30;6.80;99.90
22779;DHT22;11556;51.194;3.800;2022-11-13T06:45:56;6.70;99.90
22779;DHT22;11556;51.194;3.800;2022-11-13T06:48:22;6.70;99.90
22779;DHT22;11556;51.194;3.800;2022-11-13T06:50:49;6.80;99.90
22779;DHT22;11556;51.194;3.800;2022-11-13T06:53:15;6.80;99.90
22779;DHT22;11556;51.194;3.800;2022-11-13T06:55:46;6.70;99.90
22779;DHT22;11556;51.194;3.800;2022-11-13T06:58:12;6.70;99.90
22779;DHT22;11556;51.194;3.800;2022-11-13T07:00:38;6.70;99.90
22779;DHT22;11556;51.194;3.800;2022-11-13T07:03:04;6.70;99.90
22779;DHT22;11556;51.194;3.800;2022-11-13T07:05:30;6.70;99.90
22779;DHT22;11556;51.194;3.800;2022-11-13T07:07:55;6.60;99.90
22779;DHT22;11556;51.194;3.800;2022-11-13T07:10:21;6.60;99.90
22779;DHT22;11556;51.194;3.800;2022-11-13T07:12:46;6.70;99.90
22779;DHT22;11556;51.194;3.800;2022-11-13T07:15:12;6.60;99.90
22779;DHT22;11556;51.194;3.800;2022-11-13T07:17:38;6.60;99.90
22779;DHT22;11556;51.194;3.800;2022-11-13T07:20:04;6.80;99.90
22779;DHT22;11556;51.194;3.800;2022-11-13T07:22:29;6.90;99.90
22779;DHT22;11556;51.194;3.800;2022-11-13T07:24:55;7.00;99.90
22779;DHT22;11556;51.194;3.800;2022-11-13T07:27:22;6.90;99.90
22779;DHT22;11556;51.194;3.800;2022-11-13T07:29:48;6.80;99.90
22779;DHT22;11556;51.194;3.800;2022-11-13T07:32:13;6.80;99.90
22779;DHT22;11556;51.194;3.800;2022-11-13T07:34:39;6.90;99.90
22779;DHT22;11556;51.194;3.800;2022-11-13T07:37:05;7.10;99.90
22779;DHT22;11556;51.194;3.800;2022-11-13T07:39:33;7.30;99.90
22779;DHT22;11556;51.194;3.800;2022-11-13T07:41:59;7.50;99.90
22779;DHT22;11556;51.194;3.800;2022-11-13T07:44:24;7.60;99.90
22779;DHT22;11556;51.194;3.800;2022-11-13T07:46:50;7.90;99.90
22779;DHT22;11556;51.194;3.800;2022-11-13T07:49:15;8.20;99.90
22779;DHT22;11556;51.194;3.800;2022-11-13T07:51:41;8.70;99.90
22779;DHT22;11556;51.194;3.800;2022-11-13T07:54:06;9.40;99.90
22779;DHT22;11556;51.194;3.800;2022-11-13T07:56:32;10.10;99.90
22779;DHT22;11556;51.194;3.800;2022-11-13T07:58:58;10.60;99.90
22779;DHT22;11556;51.194;3.800;2022-11-13T08:01:23;11.20;99.90
22779;DHT22;11556;51.194;3.800;2022-11-13T08:03:49;11.70;99.90
22779;DHT22;11556;51.194;3.800;2022-11-13T08:06:15;12.10;99.90
22779;DHT22;11556;51.194;3.800;2022-11-13T08:08:40;12.30;99.90
22779;DHT22;11556;51.194;3.800;2022-11-13T08:11:07;12.50;99.90
22779;DHT22;11556;51.194;3.800;2022-11-13T08:13:34;12.70;99.90
22779;DHT22;11556;51.194;3.800;2022-11-13T08:16:01;12.80;99.90
22779;DHT22;11556;51.194;3.800;2022-11-13T08:18:29;13.10;99.90
22779;DHT22;11556;51.194;3.800;2022-11-13T08:20:56;13.40;99.90
22779;DHT22;11556;51.194;3.800;2022-11-13T08:23:21;13.50;99.90
22779;DHT22;11556;51.194;3.800;2022-11-13T08:25:47;13.80;99.90
22779;DHT22;11556;51.194;3.800;2022-11-13T08:28:13;14.30;99.90
22779;DHT22;11556;51.194;3.800;2022-11-13T08:30:42;14.50;99.90
22779;DHT22;11556;51.194;3.800;2022-11-13T08:33:09;14.60;99.90
22779;DHT22;11556;51.194;3.800;2022-11-13T08:35:34;14.80;99.90
22779;DHT22;11556;51.194;3.800;2022-11-13T08:38:02;15.10;99.90
22779;DHT22;11556;51.194;3.800;2022-11-13T08:40:27;15.30;99.90
22779;DHT22;11556;51.194;3.800;2022-11-13T08:43:01;15.40;99.90
22779;DHT22;11556;51.194;3.800;2022-11-13T08:45:28;15.70;99.90
22779;DHT22;11556;51.194;3.800;2022-11-13T08:47:58;15.80;99.90
22779;DHT22;11556;51.194;3.800;2022-11-13T08:50:24;16.00;99.90
22779;DHT22;11556;51.194;3.800;2022-11-13T08:52:54;15.60;99.90
22779;DHT22;11556;51.194;3.800;2022-11-13T08:55:20;15.50;99.90
22779;DHT22;11556;51.194;3.800;2022-11-13T08:57:46;15.00;99.90
22779;DHT22;11556;51.194;3.800;2022-11-13T09:00:12;15.00;99.90
22779;DHT22;11556;51.194;3.800;2022-11-13T09:02:37;15.30;99.90
22779;DHT22;11556;51.194;3.800;2022-11-13T09:05:03;15.80;99.90
22779;DHT22;11556;51.194;3.800;2022-11-13T09:07:29;15.20;99.90
22779;DHT22;11556;51.194;3.800;2022-11-13T09:09:55;14.50;99.90
22779;DHT22;11556;51.194;3.800;2022-11-13T09:12:20;14.60;99.90
22779;DHT22;11556;51.194;3.800;2022-11-13T09:14:46;14.80;99.90
22779;DHT22;11556;51.194;3.800;2022-11-13T09:17:11;15.30;99.90
22779;DHT22;11556;51.194;3.800;2022-11-13T09:19:37;15.50;99.90
22779;DHT22;11556;51.194;3.800;2022-11-13T09:22:03;15.20;99.90
22779;DHT22;11556;51.194;3.800;2022-11-13T09:24:28;15.10;99.90
22779;DHT22;11556;51.194;3.800;2022-11-13T09:26:54;15.50;99.90
22779;DHT22;11556;51.194;3.800;2022-11-13T09:29:19;15.70;99.90
22779;DHT22;11556;51.194;3.800;2022-11-13T09:31:48;15.40;99.90
22779;DHT22;11556;51.194;3.800;2022-11-13T09:34:13;15.50;99.90
22779;DHT22;11556;51.194;3.800;2022-11-13T09:36:39;16.10;99.90
22779;DHT22;11556;51.194;3.800;2022-11-13T09:39:05;16.50;99.90
22779;DHT22;11556;51.194;3.800;2022-11-13T09:41:36;17.00;99.90
22779;DHT22;11556;51.194;3.800;2022-11-13T09:44:11;17.70;99.90
22779;DHT22;11556;51.194;3.800;2022-11-13T09:47:14;17.90;99.90
22779;DHT22;11556;51.194;3.800;2022-11-13T09:49:36;18.00;99.90
22779;DHT22;11556;51.194;3.800;2022-11-13T09:52:11;18.40;99.90
22779;DHT22;11556;51.194;3.800;2022-11-13T09:54:38;18.80;99.90
22779;DHT22;11556;51.194;3.800;2022-11-13T09:59:59;20.00;99.90
22779;DHT22;11556;51.194;3.800;2022-11-13T10:05:31;19.90;99.90
22779;DHT22;11556;51.194;3.800;2022-11-13T10:08:18;19.90;99.90
22779;DHT22;11556;51.194;3.800;2022-11-13T10:11:00;19.80;99.90
22779;DHT22;11556;51.194;3.800;2022-11-13T10:13:50;19.80;99.90
22779;DHT22;11556;51.194;3.800;2022-11-13T10:16:42;19.70;99.90
22779;DHT22;11556;51.194;3.800;2022-11-13T10:19:38;18.80;99.90
22779;DHT22;11556;51.194;3.800;2022-11-13T10:22:28;17.60;99.90
22779;DHT22;11556;51.194;3.800;2022-11-13T10:25:05;17.40;99.90
22779;DHT22;11556;51.194;3.800;2022-11-13T10:27:33;17.30;99.90
22779;DHT22;11556;51.194;3.800;2022-11-13T10:29:59;18.00;99.90
22779;DHT22;11556;51.194;3.800;2022-11-13T10:32:28;17.90;99.90
22779;DHT22;11556;51.194;3.800;2022-11-13T10:40:31;17.30;99.90
22779;DHT22;11556;51.194;3.800;2022-11-13T10:45:30;18.40;99.90
22779;DHT22;11556;51.194;3.800;2022-11-13T10:47:56;18.80;99.90
22779;DHT22;11556;51.194;3.800;2022-11-13T10:50:26;18.50;99.90
22779;DHT22;11556;51.194;3.800;2022-11-13T10:52:54;18.30;99.90
22779;DHT22;11556;51.194;3.800;2022-11-13T10:55:40;18.30;99.90
22779;DHT22;11556;51.194;3.800;2022-11-13T10:58:17;18.70;99.90
22779;DHT22;11556;51.194;3.800;2022-11-13T11:00:44;18.00;99.90
22779;DHT22;11556;51.194;3.800;2022-11-13T11:03:21;18.60;99.90
22779;DHT22;11556;51.194;3.800;2022-11-13T11:05:52;19.00;99.90
22779;DHT22;11556;51.194;3.800;2022-11-13T11:08:25;19.00;99.90
22779;DHT22;11556;51.194;3.800;2022-11-13T11:11:06;19.40;99.90
22779;DHT22;11556;51.194;3.800;2022-11-13T11:13:51;19.00;99.90
22779;DHT22;11556;51.194;3.800;2022-11-13T11:16:24;19.40;99.90
22779;DHT22;11556;51.194;3.800;2022-11-13T11:18:59;20.10;99.90
22779;DHT22;11556;51.194;3.800;2022-11-13T11:21:29;20.20;99.40
22779;DHT22;11556;51.194;3.800;2022-11-13T11:24:03;20.70;99.60
22779;DHT22;11556;51.194;3.800;2022-11-13T11:26:48;20.60;98.80
22779;DHT22;11556;51.194;3.800;2022-11-13T11:29:21;20.20;99.50
22779;DHT22;11556;51.194;3.800;2022-11-13T11:35:20;19.00;99.90
22779;DHT22;11556;51.194;3.800;2022-11-13T11:37:58;18.80;99.90
22779;DHT22;11556;51.194;3.800;2022-11-13T11:40:41;20.40;99.90
22779;DHT22;11556;51.194;3.800;2022-11-13T11:45:44;21.50;97.40
22779;DHT22;11556;51.194;3.800;2022-11-13T11:48:14;21.20;97.60
22779;DHT22;11556;51.194;3.800;2022-11-13T11:50:53;20.70;99.40
22779;DHT22;11556;51.194;3.800;2022-11-13T11:56:44;20.20;99.60
22779;DHT22;11556;51.194;3.800;2022-11-13T12:23:56;17.10;99.90
22779;DHT22;11556;51.194;3.800;2022-11-13T12:26:40;17.40;99.90
22779;DHT22;11556;51.194;3.800;2022-11-13T12:32:14;17.40;99.90
22779;DHT22;11556;51.194;3.800;2022-11-13T12:34:59;17.20;99.90
22779;DHT22;11556;51.194;3.800;2022-11-13T12:40:02;15.80;99.90
22779;DHT22;11556;51.194;3.800;2022-11-13T12:42:48;15.90;99.90
22779;DHT22;11556;51.194;3.800;2022-11-13T12:47:44;15.60;99.90
22779;DHT22;11556;51.194;3.800;2022-11-13T12:50:30;15.40;99.90
22779;DHT22;11556;51.194;3.800;2022-11-13T12:53:00;15.60;99.90
22779;DHT22;11556;51.194;3.800;2022-11-13T12:55:29;16.20;99.90
22779;DHT22;11556;51.194;3.800;2022-11-13T12:58:07;16.70;99.90
22779;DHT22;11556;51.194;3.800;2022-11-13T13:00:34;17.00;99.90
22779;DHT22;11556;51.194;3.800;2022-11-13T13:16:36;19.90;99.90
22779;DHT22;11556;51.194;3.800;2022-11-13T13:19:23;20.70;99.90
22779;DHT22;11556;51.194;3.800;2022-11-13T13:21:49;21.30;99.90
22779;DHT22;11556;51.194;3.800;2022-11-13T13:24:41;20.20;99.30
22779;DHT22;11556;51.194;3.800;2022-11-13T13:27:27;20.10;99.90
22779;DHT22;11556;51.194;3.800;2022-11-13T13:29:53;20.70;99.80
22779;DHT22;11556;51.194;3.800;2022-11-13T13:32:30;20.40;99.90
22779;DHT22;11556;51.194;3.800;2022-11-13T13:35:20;20.60;99.40
22779;DHT22;11556;51.194;3.800;2022-11-13T13:37:49;20.70;99.30
22779;DHT22;11556;51.194;3.800;2022-11-13T13:40:55;20.90;99.00
22779;DHT22;11556;51.194;3.800;2022-11-13T13:46:21;21.20;98.00
22779;DHT22;11556;51.194;3.800;2022-11-13T13:48:50;21.10;96.90
22779;DHT22;11556;51.194;3.800;2022-11-13T13:51:32;20.90;96.60
22779;DHT22;11556;51.194;3.800;2022-11-13T13:53:59;20.70;96.60
22779;DHT22;11556;51.194;3.800;2022-11-13T13:56:26;21.00;95.30
22779;DHT22;11556;51.194;3.800;2022-11-13T13:58:52;21.20;95.30
22779;DHT22;11556;51.194;3.800;2022-11-13T14:01:32;21.70;94.80
22779;DHT22;11556;51.194;3.800;2022-11-13T14:04:13;22.40;93.20
22779;DHT22;11556;51.194;3.800;2022-11-13T14:07:00;23.00;91.40
22779;DHT22;11556;51.194;3.800;2022-11-13T14:09:28;23.60;89.10
22779;DHT22;11556;51.194;3.800;2022-11-13T14:11:58;24.00;87.20
22779;DHT22;11556;51.194;3.800;2022-11-13T14:14:24;24.30;85.90
22779;DHT22;11556;51.194;3.800;2022-11-13T14:16:53;24.70;81.50
22779;DHT22;11556;51.194;3.800;2022-11-13T14:19:19;24.40;80.20
22779;DHT22;11556;51.194;3.800;2022-11-13T14:21:47;24.60;79.70
22779;DHT22;11556;51.194;3.800;2022-11-13T14:24:25;24.10;80.10
22779;DHT22;11556;51.194;3.800;2022-11-13T14:26:53;24.20;81.30
22779;DHT22;11556;51.194;3.800;2022-11-13T14:29:22;23.80;82.00
22779;DHT22;11556;51.194;3.800;2022-11-13T14:31:50;23.30;86.10
22779;DHT22;11556;51.194;3.800;2022-11-13T14:34:20;22.80;88.80
22779;DHT22;11556;51.194;3.800;2022-11-13T14:36:46;22.20;90.00
22779;DHT22;11556;51.194;3.800;2022-11-13T14:39:28;22.00;90.30
22779;DHT22;11556;51.194;3.800;2022-11-13T14:41:57;21.80;91.60
22779;DHT22;11556;51.194;3.800;2022-11-13T14:44:32;21.80;93.10
22779;DHT22;11556;51.194;3.800;2022-11-13T14:47:02;22.30;92.20
22779;DHT22;11556;51.194;3.800;2022-11-13T14:49:36;22.30;91.60
22779;DHT22;11556;51.194;3.800;2022-11-13T14:52:02;22.00;90.90
22779;DHT22;11556;51.194;3.800;2022-11-13T14:54:35;21.80;91.40
22779;DHT22;11556;51.194;3.800;2022-11-13T14:57:12;22.20;91.20
22779;DHT22;11556;51.194;3.800;2022-11-13T14:59:38;22.00;91.00
22779;DHT22;11556;51.194;3.800;2022-11-13T15:02:09;22.00;91.30
22779;DHT22;11556;51.194;3.800;2022-11-13T15:04:35;21.90;91.10
22779;DHT22;11556;51.194;3.800;2022-11-13T15:07:02;21.50;92.40
22779;DHT22;11556;51.194;3.800;2022-11-13T15:09:29;20.80;92.90
22779;DHT22;11556;51.194;3.800;2022-11-13T15:11:55;20.40;94.80
22779;DHT22;11556;51.194;3.800;2022-11-13T15:14:21;20.40;94.80
22779;DHT22;11556;51.194;3.800;2022-11-13T15:16:48;20.60;95.10
22779;DHT22;11556;51.194;3.800;2022-11-13T15:19:30;20.50;95.30
22779;DHT22;11556;51.194;3.800;2022-11-13T15:21:58;20.60;94.80
22779;DHT22;11556;51.194;3.800;2022-11-13T15:24:24;20.20;95.00
22779;DHT22;11556;51.194;3.800;2022-11-13T15:26:50;20.10;95.80
22779;DHT22;11556;51.194;3.800;2022-11-13T15:29:15;19.90;96.20
22779;DHT22;11556;51.194;3.800;2022-11-13T15:31:43;19.70;96.20
22779;DHT22;11556;51.194;3.800;2022-11-13T15:34:14;19.20;97.90
22779;DHT22;11556;51.194;3.800;2022-11-13T15:36:40;18.60;99.60
22779;DHT22;11556;51.194;3.800;2022-11-13T15:39:07;18.30;99.90
22779;DHT22;11556;51.194;3.800;2022-11-13T15:41:34;18.10;99.90
22779;DHT22;11556;51.194;3.800;2022-11-13T15:44:03;17.60;99.90
22779;DHT22;11556;51.194;3.800;2022-11-13T15:46:30;17.10;99.90
22779;DHT22;11556;51.194;3.800;2022-11-13T15:48:56;16.60;99.90
22779;DHT22;11556;51.194;3.800;2022-11-13T15:51:32;16.10;99.90
22779;DHT22;11556;51.194;3.800;2022-11-13T15:54:01;15.60;99.90
22779;DHT22;11556;51.194;3.800;2022-11-13T15:56:28;15.10;99.90
22779;DHT22;11556;51.194;3.800;2022-11-13T15:58:55;14.60;99.90
22779;DHT22;11556;51.194;3.800;2022-11-13T16:01:20;14.30;99.90
22779;DHT22;11556;51.194;3.800;2022-11-13T16:03:46;14.10;99.90
22779;DHT22;11556;51.194;3.800;2022-11-13T16:06:15;14.00;99.90
22779;DHT22;11556;51.194;3.800;2022-11-13T16:08:41;13.70;99.90
22779;DHT22;11556;51.194;3.800;2022-11-13T16:11:15;13.50;99.90
22779;DHT22;11556;51.194;3.800;2022-11-13T16:13:41;13.40;99.90
22779;DHT22;11556;51.194;3.800;2022-11-13T16:16:19;13.20;99.90
22779;DHT22;11556;51.194;3.800;2022-11-13T16:18:46;13.10;99.90
22779;DHT22;11556;51.194;3.800;2022-11-13T16:21:12;13.00;99.90
22779;DHT22;11556;51.194;3.800;2022-11-13T16:23:39;12.90;99.90
22779;DHT22;11556;51.194;3.800;2022-11-13T16:26:05;12.90;99.90
22779;DHT22;11556;51.194;3.800;2022-11-13T16:28:35;12.80;99.90
22779;DHT22;11556;51.194;3.800;2022-11-13T16:31:01;12.70;99.90
22779;DHT22;11556;51.194;3.800;2022-11-13T16:33:26;12.50;99.90
22779;DHT22;11556;51.194;3.800;2022-11-13T16:35:52;12.40;99.90
22779;DHT22;11556;51.194;3.800;2022-11-13T16:38:19;12.40;99.90
22779;DHT22;11556;51.194;3.800;2022-11-13T16:40:44;12.30;99.90
22779;DHT22;11556;51.194;3.800;2022-11-13T16:43:11;12.20;99.90
22779;DHT22;11556;51.194;3.800;2022-11-13T16:45:37;12.10;99.90
22779;DHT22;11556;51.194;3.800;2022-11-13T16:48:11;11.90;99.90
22779;DHT22;11556;51.194;3.800;2022-11-13T16:50:37;11.80;99.90
22779;DHT22;11556;51.194;3.800;2022-11-13T16:53:04;11.70;99.90
22779;DHT22;11556;51.194;3.800;2022-11-13T16:55:30;11.70;99.90
22779;DHT22;11556;51.194;3.800;2022-11-13T16:57:56;11.60;99.90
22779;DHT22;11556;51.194;3.800;2022-11-13T17:00:22;11.60;99.90
22779;DHT22;11556;51.194;3.800;2022-11-13T17:02:50;11.60;99.90
22779;DHT22;11556;51.194;3.800;2022-11-13T17:05:17;11.70;99.90